createdAt,value
2019-02-09T00:01:49.185Z,5.37
2019-02-09T00:04:15.757Z,3.50
2019-02-09T00:06:42.089Z,3.23
2019-02-09T00:09:09.452Z,5.80
2019-02-09T00:11:35.818Z,3.80
2019-02-09T00:14:03.161Z,5.60
2019-02-09T00:16:30.135Z,3.27
2019-02-09T00:18:56.593Z,3.70
2019-02-09T00:21:23.027Z,8.60
2019-02-09T00:23:49.422Z,7.23
2019-02-09T00:26:15.879Z,7.40
2019-02-09T00:28:42.381Z,5.47
2019-02-09T00:31:08.978Z,6.50
2019-02-09T00:33:35.936Z,4.10
2019-02-09T00:36:03.256Z,5.93
2019-02-09T00:38:29.882Z,4.90
2019-02-09T00:40:56.447Z,3.80
2019-02-09T00:43:23.424Z,4.80
2019-02-09T00:45:50.112Z,6.20
2019-02-09T00:48:16.753Z,4.80
2019-02-09T00:50:43.630Z,2.50
2019-02-09T00:53:10.234Z,4.40
2019-02-09T00:55:36.824Z,3.87
2019-02-09T00:58:08.196Z,8.03
2019-02-09T01:00:35.013Z,3.50
2019-02-09T01:03:02.011Z,4.10
2019-02-09T01:05:34.923Z,4.43
2019-02-09T01:08:01.559Z,7.10
2019-02-09T01:10:29.756Z,3.73
2019-02-09T01:12:56.392Z,7.87
2019-02-09T01:15:23.072Z,7.13
2019-02-09T01:17:49.487Z,4.80
2019-02-09T01:20:24.464Z,5.07
2019-02-09T01:22:52.131Z,3.63
2019-02-09T01:28:29.924Z,4.83
2019-02-09T01:30:56.561Z,5.20
2019-02-09T01:33:23.094Z,3.60
2019-02-09T01:35:49.535Z,8.00
2019-02-09T01:38:16.011Z,6.33
2019-02-09T01:40:42.481Z,5.10
2019-02-09T01:43:08.922Z,9.80
2019-02-09T01:45:35.556Z,3.23
2019-02-09T01:48:02.329Z,4.77
2019-02-09T01:50:32.243Z,5.70
2019-02-09T01:52:59.110Z,5.40
2019-02-09T01:55:29.222Z,2.93
2019-02-09T01:57:57.011Z,5.87
2019-02-09T02:00:33.714Z,6.50
2019-02-09T02:03:00.510Z,6.30
2019-02-09T02:05:27.404Z,5.07
2019-02-09T02:07:54.389Z,5.70
2019-02-09T02:10:25.930Z,4.10
2019-02-09T02:12:53.057Z,4.50
2019-02-09T02:15:19.652Z,5.70
2019-02-09T02:17:46.260Z,5.50
2019-02-09T02:20:18.459Z,4.40
2019-02-09T02:22:45.060Z,4.20
2019-02-09T02:25:12.427Z,4.63
2019-02-09T02:27:38.846Z,6.30
2019-02-09T02:30:09.012Z,4.60
2019-02-09T02:32:35.515Z,9.23
2019-02-09T02:35:02.454Z,5.40
2019-02-09T02:37:29.169Z,3.73
2019-02-09T02:39:55.836Z,3.97
2019-02-09T02:42:22.570Z,4.93
2019-02-09T02:44:49.284Z,5.17
2019-02-09T02:47:15.736Z,5.50
2019-02-09T02:49:42.215Z,5.40
2019-02-09T02:52:08.608Z,4.93
2019-02-09T02:54:35.224Z,5.50
2019-02-09T02:57:01.898Z,4.00
2019-02-09T02:59:28.618Z,5.73
2019-02-09T03:01:55.775Z,3.73
2019-02-09T03:04:22.235Z,3.30
2019-02-09T03:07:04.293Z,6.00
2019-02-09T03:09:32.480Z,7.63
2019-02-09T03:11:59.953Z,4.93
2019-02-09T03:14:26.297Z,6.40
2019-02-09T03:16:52.714Z,5.80
2019-02-09T03:19:19.944Z,4.93
2019-02-09T03:21:46.346Z,6.77
2019-02-09T03:24:12.922Z,4.77
2019-02-09T03:26:39.416Z,6.40
2019-02-09T03:29:05.815Z,3.13
2019-02-09T03:31:32.625Z,4.90
2019-02-09T03:33:59.357Z,3.70
2019-02-09T03:36:26.378Z,5.83
2019-02-09T03:38:53.295Z,3.50
2019-02-09T03:41:19.883Z,5.90
2019-02-09T03:43:46.400Z,4.90
2019-02-09T03:46:13.598Z,5.03
2019-02-09T03:48:40.077Z,5.30
2019-02-09T03:51:06.584Z,8.27
2019-02-09T03:57:08.825Z,5.00
2019-02-09T03:59:35.109Z,5.80
2019-02-09T04:02:01.625Z,4.27
2019-02-09T04:04:28.234Z,7.40
2019-02-09T04:06:54.798Z,6.10
2019-02-09T04:09:21.385Z,7.17
2019-02-09T04:11:48.069Z,6.63
2019-02-09T04:14:14.709Z,9.20
2019-02-09T04:16:41.373Z,5.13
2019-02-09T04:19:08.012Z,9.03
2019-02-09T04:21:34.625Z,7.37
2019-02-09T04:24:01.125Z,7.30
2019-02-09T04:26:28.191Z,6.23
2019-02-09T04:28:54.640Z,4.30
2019-02-09T04:31:21.309Z,5.90
2019-02-09T04:33:48.130Z,5.83
2019-02-09T04:36:14.488Z,6.03
2019-02-09T04:38:41.097Z,3.70
2019-02-09T04:41:07.618Z,9.13
2019-02-09T04:43:33.985Z,8.97
2019-02-09T04:46:00.514Z,7.83
2019-02-09T04:48:26.952Z,10.60
2019-02-09T04:50:53.472Z,3.60
2019-02-09T04:53:20.021Z,4.73
2019-02-09T04:55:46.457Z,3.90
2019-02-09T04:58:13.059Z,6.50
2019-02-09T05:00:39.522Z,6.90
2019-02-09T05:03:06.130Z,5.67
2019-02-09T05:05:32.771Z,6.80
2019-02-09T05:07:59.524Z,6.47
2019-02-09T05:10:26.029Z,4.23
2019-02-09T05:12:52.461Z,9.50
2019-02-09T05:15:21.082Z,7.63
2019-02-09T05:17:48.347Z,5.93
2019-02-09T05:20:17.234Z,4.67
2019-02-09T05:22:44.095Z,4.43
2019-02-09T05:25:12.396Z,7.33
2019-02-09T05:27:39.236Z,4.70
2019-02-09T05:30:18.135Z,11.83
2019-02-09T05:32:44.855Z,5.20
2019-02-09T05:35:11.290Z,4.53
2019-02-09T05:37:38.205Z,3.93
2019-02-09T05:40:08.702Z,6.27
2019-02-09T05:42:35.474Z,10.03
2019-02-09T05:45:02.409Z,7.77
2019-02-09T05:47:28.956Z,5.20
2019-02-09T05:49:55.540Z,5.40
2019-02-09T05:52:22.303Z,4.03
2019-02-09T05:54:48.832Z,3.10
2019-02-09T05:57:15.268Z,4.60
2019-02-09T05:59:41.812Z,5.60
2019-02-09T06:02:08.313Z,7.40
2019-02-09T06:04:34.986Z,5.20
2019-02-09T06:07:01.667Z,5.60
2019-02-09T06:09:28.333Z,5.57
2019-02-09T06:11:54.961Z,5.70
2019-02-09T06:14:21.958Z,7.53
2019-02-09T06:16:48.991Z,4.03
2019-02-09T06:19:15.706Z,4.43
2019-02-09T06:21:42.729Z,4.63
2019-02-09T06:24:09.615Z,5.27
2019-02-09T06:26:36.300Z,6.07
2019-02-09T06:29:02.827Z,15.33
2019-02-09T06:31:29.629Z,4.43
2019-02-09T06:33:56.312Z,7.30
2019-02-09T06:36:22.850Z,5.70
2019-02-09T06:38:50.448Z,6.40
2019-02-09T06:41:16.985Z,4.57
2019-02-09T06:43:43.304Z,7.23
2019-02-09T06:46:13.201Z,4.00
2019-02-09T06:48:41.575Z,5.60
2019-02-09T06:51:10.640Z,6.50
2019-02-09T06:53:38.505Z,5.60
2019-02-09T06:56:06.172Z,3.93
2019-02-09T06:58:33.072Z,6.63
2019-02-09T07:00:59.915Z,10.47
2019-02-09T07:03:26.892Z,7.53
2019-02-09T07:05:53.320Z,5.07
2019-02-09T07:08:32.983Z,5.60
2019-02-09T07:11:00.876Z,3.63
2019-02-09T07:13:27.898Z,4.07
2019-02-09T07:15:54.597Z,4.80
2019-02-09T07:18:21.317Z,4.20
2019-02-09T07:20:47.912Z,7.93
2019-02-09T07:23:14.796Z,6.73
2019-02-09T07:25:41.496Z,3.20
2019-02-09T07:28:08.047Z,7.33
2019-02-09T07:30:40.235Z,4.57
2019-02-09T07:33:07.482Z,4.40
2019-02-09T07:35:34.172Z,5.00
2019-02-09T07:38:00.758Z,4.83
2019-02-09T07:40:30.365Z,6.40
2019-02-09T07:42:58.828Z,6.93
2019-02-09T07:45:31.506Z,6.97
2019-02-09T07:48:02.376Z,4.40
2019-02-09T07:50:29.597Z,4.33
2019-02-09T07:52:56.422Z,4.03
2019-02-09T07:55:24.370Z,3.10
2019-02-09T07:57:52.888Z,4.67
2019-02-09T08:00:23.973Z,4.30
2019-02-09T08:02:51.815Z,8.20
2019-02-09T08:05:19.829Z,4.23
2019-02-09T08:07:46.936Z,4.50
2019-02-09T08:10:17.343Z,4.53
2019-02-09T08:12:44.580Z,5.17
2019-02-09T08:15:17.563Z,2.90
2019-02-09T08:17:45.003Z,6.87
2019-02-09T08:20:17.606Z,5.30
2019-02-09T08:22:45.036Z,10.37
2019-02-09T08:25:17.248Z,10.33
2019-02-09T08:27:44.800Z,6.67
2019-02-09T08:30:14.986Z,4.50
2019-02-09T08:32:41.560Z,3.67
2019-02-09T08:35:08.887Z,5.20
2019-02-09T08:37:35.769Z,3.37
2019-02-09T08:40:03.597Z,7.30
2019-02-09T08:42:30.055Z,3.20
2019-02-09T08:44:56.585Z,3.57
2019-02-09T08:47:23.452Z,7.37
2019-02-09T08:49:49.970Z,5.40
2019-02-09T08:52:18.540Z,4.17
2019-02-09T08:54:48.429Z,3.33
2019-02-09T08:57:19.714Z,4.87
2019-02-09T08:59:46.563Z,4.77
2019-02-09T09:02:20.184Z,4.73
2019-02-09T09:04:41.651Z,4.60
2019-02-09T09:07:08.232Z,5.27
2019-02-09T09:09:34.635Z,8.67
2019-02-09T09:12:01.191Z,5.37
2019-02-09T09:14:27.719Z,6.40
2019-02-09T09:16:54.116Z,6.40
2019-02-09T09:19:20.824Z,4.10
2019-02-09T09:21:47.432Z,4.30
2019-02-09T09:24:14.165Z,3.10
2019-02-09T09:26:40.779Z,3.37
2019-02-09T09:29:07.429Z,3.37
2019-02-09T09:31:34.336Z,5.77
2019-02-09T09:34:03.530Z,7.23
2019-02-09T09:36:30.402Z,6.47
2019-02-09T09:38:56.895Z,5.60
2019-02-09T09:41:23.475Z,3.13
2019-02-09T09:43:50.723Z,4.47
2019-02-09T09:46:17.783Z,4.00
2019-02-09T09:48:44.581Z,8.40
2019-02-09T09:51:11.353Z,4.23
2019-02-09T09:53:38.277Z,3.60
2019-02-09T09:56:05.144Z,5.40
2019-02-09T09:58:34.887Z,3.47
2019-02-09T10:01:03.580Z,3.30
2019-02-09T10:03:30.283Z,4.10
2019-02-09T10:05:57.292Z,4.63
2019-02-09T10:08:24.611Z,3.90
2019-02-09T10:10:52.086Z,5.20
2019-02-09T10:13:19.100Z,4.30
2019-02-09T10:16:07.909Z,4.47
2019-02-09T10:18:34.272Z,5.17
2019-02-09T10:21:01.068Z,4.47
2019-02-09T10:23:27.606Z,4.00
2019-02-09T10:25:54.088Z,7.77
2019-02-09T10:28:20.534Z,4.23
2019-02-09T10:30:47.035Z,12.17
2019-02-09T10:33:13.474Z,5.83
2019-02-09T10:35:40.132Z,7.00
2019-02-09T10:38:06.712Z,3.10
2019-02-09T10:40:37.859Z,7.37
2019-02-09T10:43:06.857Z,5.47
2019-02-09T10:45:34.428Z,6.20
2019-02-09T10:48:04.012Z,4.23
2019-02-09T10:50:42.599Z,8.50
2019-02-09T10:53:09.606Z,7.60
2019-02-09T10:55:36.300Z,6.10
2019-02-09T10:58:03.958Z,7.03
2019-02-09T11:00:36.986Z,7.37
2019-02-09T11:06:27.086Z,5.40
2019-02-09T11:08:53.550Z,5.20
2019-02-09T11:11:20.433Z,4.23
2019-02-09T11:13:47.933Z,7.30
2019-02-09T11:16:14.771Z,4.13
2019-02-09T11:18:41.439Z,6.80
2019-02-09T11:21:08.148Z,6.80
2019-02-09T11:23:35.121Z,5.80
2019-02-09T11:29:26.119Z,6.63
2019-02-09T11:31:53.057Z,4.37
2019-02-09T11:34:19.975Z,10.07
2019-02-09T11:36:47.034Z,8.27
2019-02-09T11:39:13.652Z,7.90
2019-02-09T11:41:40.453Z,8.20
2019-02-09T11:44:07.166Z,6.63
2019-02-09T11:46:33.891Z,6.10
2019-02-09T11:49:00.535Z,10.87
2019-02-09T11:51:27.286Z,8.57
2019-02-09T11:53:54.017Z,6.10
2019-02-09T11:56:22.934Z,9.47
2019-02-09T11:58:50.588Z,4.57
2019-02-09T12:01:17.128Z,8.63
2019-02-09T12:03:43.333Z,8.83
2019-02-09T12:06:09.944Z,5.00
2019-02-09T12:08:36.829Z,3.63
2019-02-09T12:11:03.741Z,10.07
2019-02-09T12:13:33.065Z,7.23
2019-02-09T12:19:35.749Z,4.77
2019-02-09T12:22:02.819Z,7.87
2019-02-09T12:24:29.260Z,5.20
2019-02-09T12:26:56.346Z,8.20
2019-02-09T12:29:23.135Z,5.40
2019-02-09T12:31:49.833Z,6.03
2019-02-09T12:34:16.413Z,4.30
2019-02-09T12:36:43.203Z,11.27
2019-02-09T12:39:10.047Z,6.03
2019-02-09T12:41:36.649Z,7.50
2019-02-09T12:47:14.665Z,9.40
2019-02-09T12:52:54.723Z,10.37
2019-02-09T12:55:22.254Z,8.77
2019-02-09T12:57:50.162Z,6.70
2019-02-09T13:00:32.311Z,5.10
2019-02-09T13:03:08.235Z,7.73
2019-02-09T13:05:35.159Z,7.50
2019-02-09T13:08:01.699Z,11.13
2019-02-09T13:10:32.963Z,7.00
2019-02-09T13:13:00.025Z,4.23
2019-02-09T13:15:29.134Z,8.40
2019-02-09T13:17:56.145Z,9.50
2019-02-09T13:20:28.550Z,8.87
2019-02-09T13:22:55.884Z,7.47
2019-02-09T13:25:25.475Z,7.07
2019-02-09T13:27:52.630Z,9.43
2019-02-09T13:30:29.736Z,11.53
2019-02-09T13:32:58.661Z,6.73
2019-02-09T13:35:29.744Z,8.27
2019-02-09T13:37:56.408Z,9.87
2019-02-09T13:40:25.485Z,12.07
2019-02-09T13:42:52.725Z,9.10
2019-02-09T13:45:34.603Z,6.70
2019-02-09T13:48:03.931Z,9.10
2019-02-09T13:54:05.079Z,10.67
2019-02-09T13:56:31.762Z,10.40
2019-02-09T13:58:58.709Z,9.47
2019-02-09T14:04:49.197Z,10.10
2019-02-09T14:07:15.489Z,12.00
2019-02-09T14:09:41.871Z,7.10
2019-02-09T14:12:08.370Z,8.63
2019-02-09T14:14:34.934Z,10.80
2019-02-09T14:17:01.707Z,9.17
2019-02-09T14:19:28.557Z,11.07
2019-02-09T14:25:08.848Z,9.83
2019-02-09T14:27:35.351Z,9.70
2019-02-09T14:30:03.877Z,8.40
2019-02-09T14:35:54.634Z,7.33
2019-02-09T14:38:21.345Z,8.47
2019-02-09T14:44:21.968Z,9.53
2019-02-09T14:46:48.654Z,7.80
2019-02-09T14:49:15.277Z,11.87
2019-02-09T14:51:42.338Z,7.33
2019-02-09T14:54:08.814Z,6.87
2019-02-09T14:56:35.483Z,9.97
2019-02-09T14:59:01.839Z,8.63
2019-02-09T15:04:53.146Z,8.10
2019-02-09T15:07:20.106Z,7.20
2019-02-09T15:09:46.789Z,8.43
2019-02-09T15:12:13.493Z,12.27
2019-02-09T15:14:40.625Z,8.27
2019-02-09T15:17:06.973Z,8.33
2019-02-09T15:19:33.557Z,11.00
2019-02-09T15:22:00.062Z,8.43
2019-02-09T15:24:26.474Z,5.73
2019-02-09T15:26:53.066Z,6.73
2019-02-09T15:29:19.563Z,9.60
2019-02-09T15:31:45.884Z,10.80
2019-02-09T15:34:12.603Z,10.07
2019-02-09T15:36:39.151Z,9.10
2019-02-09T15:39:07.344Z,5.13
2019-02-09T15:41:33.918Z,7.50
2019-02-09T15:44:01.069Z,9.87
2019-02-09T15:46:27.367Z,9.50
2019-02-09T15:48:53.964Z,7.03
2019-02-09T15:51:21.420Z,8.40
2019-02-09T15:53:47.927Z,7.80
2019-02-09T15:56:14.329Z,12.93
2019-02-09T16:02:16.214Z,9.27
2019-02-09T16:04:42.738Z,8.40
2019-02-09T16:07:09.470Z,6.40
2019-02-09T16:09:36.008Z,7.17
2019-02-09T16:12:02.517Z,4.40
2019-02-09T16:14:29.285Z,12.00
2019-02-09T16:16:55.909Z,9.97
2019-02-09T16:19:22.549Z,8.90
2019-02-09T16:21:49.078Z,5.53
2019-02-09T16:24:15.506Z,5.87
2019-02-09T16:26:41.898Z,9.33
2019-02-09T16:29:08.451Z,8.77
2019-02-09T16:31:36.070Z,6.73
2019-02-09T16:34:02.903Z,6.40
2019-02-09T16:36:29.304Z,10.70
2019-02-09T16:38:55.997Z,6.23
2019-02-09T16:41:22.632Z,7.90
2019-02-09T16:43:49.287Z,9.03
2019-02-09T16:46:15.790Z,7.80
2019-02-09T16:48:42.318Z,5.87
2019-02-09T16:54:44.167Z,6.23
2019-02-09T16:57:10.844Z,4.90
2019-02-09T16:59:37.606Z,6.37
2019-02-09T17:02:04.193Z,9.53
2019-02-09T17:04:33.217Z,6.17
2019-02-09T17:06:59.138Z,10.03
2019-02-09T17:09:26.306Z,7.77
2019-02-09T17:11:53.379Z,6.20
2019-02-09T17:14:19.999Z,7.63
2019-02-09T17:16:46.914Z,8.17
2019-02-09T17:19:14.968Z,5.67
2019-02-09T17:24:53.760Z,11.13
2019-02-09T17:27:20.475Z,14.87
2019-02-09T17:29:47.272Z,6.43
2019-02-09T17:32:14.352Z,6.07
2019-02-09T17:34:41.219Z,7.50
2019-02-09T17:37:07.660Z,6.07
2019-02-09T17:39:34.162Z,6.43
2019-02-09T17:45:24.919Z,8.70
2019-02-09T17:47:51.379Z,9.67
2019-02-09T17:50:18.285Z,6.50
2019-02-09T17:52:44.825Z,8.40
2019-02-09T17:55:14.469Z,7.37
2019-02-09T17:57:41.051Z,8.93
2019-02-09T18:00:16.774Z,9.13
2019-02-09T18:02:43.027Z,11.10
2019-02-09T18:05:10.090Z,7.37
2019-02-09T18:07:36.798Z,8.73
2019-02-09T18:10:07.064Z,7.47
2019-02-09T18:12:33.718Z,12.87
2019-02-09T18:15:00.495Z,8.10
2019-02-09T18:17:27.034Z,9.20
2019-02-09T18:19:53.462Z,11.23
2019-02-09T18:22:20.285Z,11.07
2019-02-09T18:24:47.096Z,6.93
2019-02-09T18:27:13.736Z,5.60
2019-02-09T18:29:40.267Z,8.37
2019-02-09T18:32:07.173Z,8.80
2019-02-09T18:34:33.444Z,10.10
2019-02-09T18:37:00.305Z,7.40
2019-02-09T18:39:26.926Z,4.70
2019-02-09T18:41:53.760Z,9.07
2019-02-09T18:47:44.278Z,8.27
2019-02-09T18:50:17.681Z,6.30
2019-02-09T18:52:44.648Z,7.33
2019-02-09T18:55:16.304Z,13.93
2019-02-09T18:57:43.978Z,9.83
2019-02-09T19:00:14.379Z,7.10
2019-02-09T19:02:41.007Z,5.20
2019-02-09T19:05:10.039Z,7.77
2019-02-09T19:11:02.044Z,9.10
2019-02-09T19:13:28.787Z,6.93
2019-02-09T19:15:55.351Z,10.10
2019-02-09T19:18:21.862Z,8.20
2019-02-09T19:20:51.736Z,12.50
2019-02-09T19:23:19.320Z,7.63
2019-02-09T19:25:45.778Z,10.20
2019-02-09T19:31:48.125Z,7.07
2019-02-09T19:34:14.919Z,10.70
2019-02-09T19:36:41.294Z,7.17
2019-02-09T19:42:19.816Z,10.13
2019-02-09T19:44:46.967Z,9.63
2019-02-09T19:47:16.780Z,9.07
2019-02-09T19:53:07.645Z,5.50
2019-02-09T19:55:35.477Z,9.33
2019-02-09T19:58:02.163Z,7.90
2019-02-09T20:03:40.035Z,9.93
2019-02-09T20:06:06.515Z,10.30
2019-02-09T20:08:32.761Z,13.00
2019-02-09T20:14:22.951Z,10.30
2019-02-09T20:16:49.940Z,8.70
2019-02-09T20:19:16.614Z,9.10
2019-02-09T20:25:10.655Z,11.40
2019-02-09T20:27:37.539Z,11.03
2019-02-09T20:30:16.526Z,6.60
2019-02-09T20:32:42.870Z,10.53
2019-02-09T20:35:13.488Z,10.00
2019-02-09T20:37:42.007Z,5.73
2019-02-09T20:40:12.480Z,8.70
2019-02-09T20:46:03.172Z,11.03
2019-02-09T20:48:30.290Z,8.13
2019-02-09T20:50:57.119Z,15.10
2019-02-09T20:56:23.396Z,9.30
2019-02-09T20:58:50.019Z,12.07
2019-02-09T21:01:16.654Z,10.27
2019-02-09T21:03:43.244Z,14.63
2019-02-09T21:06:09.732Z,17.00
2019-02-09T21:08:36.296Z,10.23
2019-02-09T21:11:02.904Z,11.13
2019-02-09T21:13:29.361Z,17.40
2019-02-09T21:15:55.857Z,9.23
2019-02-09T21:18:22.223Z,13.30
2019-02-09T21:20:53.060Z,13.97
2019-02-09T21:26:55.049Z,12.10
2019-02-09T21:29:21.964Z,6.90
2019-02-09T21:31:48.500Z,7.73
2019-02-09T21:37:50.617Z,12.00
2019-02-09T21:40:20.292Z,14.70
2019-02-09T21:42:47.181Z,11.23
2019-02-09T21:45:16.156Z,9.13
2019-02-09T21:47:43.997Z,13.30
2019-02-09T21:50:22.341Z,8.00
2019-02-09T21:52:48.972Z,13.60
2019-02-09T21:55:20.936Z,10.43
2019-02-09T21:57:47.917Z,14.20
2019-02-09T22:00:35.250Z,13.33
2019-02-09T22:03:14.562Z,14.50
2019-02-09T22:05:41.190Z,12.90
2019-02-09T22:08:10.619Z,13.37
2019-02-09T22:10:37.732Z,7.30
2019-02-09T22:13:04.368Z,13.40
2019-02-09T22:15:38.252Z,13.03
2019-02-09T22:18:01.790Z,10.40
2019-02-09T22:20:29.716Z,12.10
2019-02-09T22:23:02.101Z,12.57
2019-02-09T22:28:55.680Z,12.63
2019-02-09T22:31:22.423Z,16.97
2019-02-09T22:33:49.779Z,12.60
2019-02-09T22:36:16.283Z,14.70
2019-02-09T22:38:42.766Z,15.00
2019-02-09T22:41:09.770Z,12.20
2019-02-09T22:43:36.199Z,15.53
2019-02-09T22:46:03.384Z,17.20
2019-02-09T22:51:22.149Z,12.10
2019-02-09T22:53:48.870Z,12.13
2019-02-09T22:56:15.774Z,19.27
2019-02-09T22:58:42.995Z,14.43
2019-02-09T23:01:16.103Z,12.30
2019-02-09T23:03:49.528Z,12.70
2019-02-09T23:06:25.878Z,7.60
2019-02-09T23:08:54.601Z,9.20
2019-02-09T23:11:23.330Z,14.17
2019-02-09T23:13:51.885Z,11.93
2019-02-09T23:16:18.510Z,12.67
2019-02-09T23:18:47.785Z,12.87
2019-02-09T23:21:18.358Z,19.47
2019-02-09T23:23:48.407Z,14.30
2019-02-09T23:26:14.757Z,9.90
2019-02-09T23:28:41.396Z,17.73
2019-02-09T23:31:07.995Z,16.53
2019-02-09T23:33:35.879Z,13.33
2019-02-09T23:36:02.355Z,14.77
2019-02-09T23:38:28.851Z,12.93
2019-02-09T23:40:55.360Z,13.53
2019-02-09T23:43:21.720Z,10.70
2019-02-09T23:45:50.955Z,13.30
2019-02-09T23:48:17.839Z,13.60
2019-02-09T23:50:44.495Z,14.37
2019-02-09T23:53:11.242Z,13.20
2019-02-09T23:55:38.455Z,15.33
2019-02-09T23:58:05.905Z,13.97
